Time;durP1;ratioP1;P1;durP2;ratioP2;P2;SDS_P1;SDS_P2;PMS_P1;PMS_P2;Temp;Humidity;BMP_temperature;BMP_pressure;BME280_temperature;BME280_humidity;BME280_pressure;Samples;Min_cycle;Max_cycle;Signal;HPM_P1;HPM_P2
2023/03/27 00:40:16;;;;;;;12.23;3.55;;;;;;;12.20;71.51;101296.69;12909775;22;98975;-80
2023/03/27 00:45:25;;;;;;;14.57;4.37;;;;;;;12.30;71.09;101300.78;12920546;22;98873;-81
2023/03/27 00:50:36;;;;;;;14.73;4.22;;;;;;;12.20;71.21;101307.25;12929490;22;99984;-80
2023/03/27 00:55:51;;;;;;;14.32;4.38;;;;;;;12.16;71.30;101301.19;12929287;22;99195;-81
2023/03/27 01:00:57;;;;;;;15.80;6.40;;;;;;;12.27;70.39;101306.16;12929184;22;99194;-81
2023/03/27 01:06:12;;;;;;;17.55;5.55;;;;;;;12.31;70.61;101313.94;12930142;22;99279;-81
2023/03/27 01:11:46;;;;;;;15.88;5.72;;;;;;;12.31;69.91;101320.97;12928938;22;99140;-81
2023/03/27 01:17:09;;;;;;;14.85;5.10;;;;;;;12.02;71.52;101313.94;12928968;22;98971;-81
2023/03/27 01:23:03;;;;;;;14.23;5.25;;;;;;;11.77;72.90;101307.59;12927586;22;99306;-79
2023/03/27 01:28:27;;;;;;;10.35;3.92;;;;;;;11.46;73.40;101303.22;12916864;22;99003;-79
2023/03/27 01:34:06;;;;;;;;;;;;;;;;;;;;;
2023/03/27 01:39:45;;;;;;;11.68;3.45;;;;;;;11.47;73.25;101302.28;12917329;22;99422;-80
2023/03/27 01:44:52;;;;;;;13.55;3.65;;;;;;;11.50;72.35;101295.16;12928370;22;98951;-79
2023/03/27 01:50:08;;;;;;;13.30;3.63;;;;;;;11.37;71.82;101292.00;12928752;22;98970;-79
2023/03/27 01:55:20;;;;;;;13.77;3.80;;;;;;;11.25;73.10;101296.75;12918234;22;99186;-79
2023/03/27 02:00:26;;;;;;;14.35;3.20;;;;;;;11.26;72.35;101288.78;12929343;22;97761;-79
2023/03/27 02:05:55;;;;;;;11.68;3.47;;;;;;;11.27;72.60;101274.69;12928129;22;100812;-79
2023/03/27 02:11:03;;;;;;;13.27;3.78;;;;;;;11.35;72.85;101277.16;12928287;22;98965;-79
2023/03/27 02:16:16;;;;;;;14.98;3.80;;;;;;;11.30;72.55;101274.59;12927194;22;99008;-79
2023/03/27 03:17:18;;;;;;;13.93;3.78;;;;;;;10.59;75.46;101220.25;12913300;22;96944;-79
2023/03/27 03:22:24;;;;;;;10.48;3.70;;;;;;;10.51;74.89;101223.94;12927462;22;99061;-79
2023/03/27 03:27:33;;;;;;;13.73;3.63;;;;;;;10.43;75.53;101223.28;12927677;22;98972;-79
2023/03/27 03:32:38;;;;;;;9.80;3.25;;;;;;;10.33;76.54;101221.78;12927633;22;99097;-79
2023/03/27 03:37:48;;;;;;;11.38;3.63;;;;;;;10.33;76.25;101217.38;12927663;22;99005;-79
2023/03/27 03:42:53;;;;;;;16.02;4.10;;;;;;;10.33;75.60;101224.41;12926891;22;98961;-79
2023/03/27 03:47:57;;;;;;;12.13;3.47;;;;;;;10.26;76.43;101224.53;12928116;22;99068;-80
2023/03/27 03:53:16;;;;;;;9.30;3.40;;;;;;;10.30;75.16;101220.06;12924730;22;98654;-79
2023/03/27 03:58:21;;;;;;;11.40;3.30;;;;;;;10.31;75.77;101221.81;12927034;22;98908;-80
2023/03/27 04:03:57;;;;;;;13.10;4.00;;;;;;;10.15;75.69;101218.66;12925403;22;98945;-79
2023/03/27 04:09:00;;;;;;;17.00;4.05;;;;;;;10.05;76.69;101218.91;12916367;22;99007;-79
2023/03/27 04:14:05;;;;;;;13.60;3.63;;;;;;;10.00;76.92;101208.47;12929519;22;99335;-79
2023/03/27 04:19:21;;;;;;;10.55;3.28;;;;;;;10.01;76.06;101199.69;12865645;22;98960;-79
2023/03/27 04:24:24;;;;;;;13.07;3.30;;;;;;;9.89;76.77;101199.97;12865440;22;99474;-79
2023/03/27 04:29:32;;;;;;;13.00;3.47;;;;;;;9.76;77.13;101192.38;12865734;22;98790;-79
2023/03/27 04:34:50;;;;;;;11.20;3.33;;;;;;;9.80;76.95;101186.13;12865555;22;98931;-79
2023/03/27 04:40:03;;;;;;;9.85;3.25;;;;;;;9.66;76.90;101189.06;12866013;22;99024;-79
2023/03/27 04:45:34;;;;;;;14.88;3.53;;;;;;;9.73;76.83;101182.78;12864792;22;98923;-79
2023/03/27 04:50:51;;;;;;;10.35;3.50;;;;;;;9.91;76.18;101176.28;12804465;22;98930;-79
2023/03/27 04:55:56;;;;;;;11.45;3.33;;;;;;;9.95;75.92;101184.03;12864084;22;98906;-80
2023/03/27 05:01:01;;;;;;;10.18;3.10;;;;;;;10.05;75.47;101182.97;12865325;22;98885;-79
2023/03/27 05:06:10;;;;;;;;;;;;;;;10.09;74.40;101175.88;12865932;22;99041;-80
2023/03/27 05:11:19;;;;;;;10.55;3.03;;;;;;;10.22;74.04;101178.16;12865337;22;99180;-79
2023/03/27 05:16:23;;;;;;;13.52;3.28;;;;;;;10.09;74.55;101175.88;12893630;22;98834;-79
2023/03/27 05:21:31;;;;;;;14.98;3.75;;;;;;;10.04;75.03;101168.06;12928915;22;98808;-79
2023/03/27 05:26:40;;;;;;;13.63;3.58;;;;;;;10.03;73.97;101170.72;12928674;22;99485;-79
2023/03/27 05:31:50;;;;;;;11.32;3.20;;;;;;;10.01;74.00;101175.16;12929834;22;99449;-80
2023/03/27 05:37:29;;;;;;;13.50;2.92;;;;;;;10.05;74.64;101175.06;12927395;22;98942;-79
2023/03/27 05:42:43;;;;;;;14.70;4.28;;;;;;;9.96;74.77;101171.78;12838320;22;98888;-80
2023/03/27 05:47:59;;;;;;;11.05;3.70;;;;;;;10.00;74.28;101168.19;12927037;22;98961;-80
2023/03/27 05:53:08;;;;;;;9.85;3.38;;;;;;;10.03;73.89;101170.72;12928672;22;98957;-80
2023/03/27 05:58:15;;;;;;;12.27;3.85;;;;;;;9.97;73.94;101171.72;12928193;22;99295;-80
2023/03/27 06:03:23;;;;;;;13.15;3.35;;;;;;;9.93;74.07;101170.09;12928426;22;98968;-79
2023/03/27 06:08:57;;;;;;;9.73;3.47;;;;;;;9.88;74.31;101178.97;12928632;22;98909;-80
2023/03/27 06:14:04;;;;;;;9.35;2.80;;;;;;;9.85;73.86;101176.38;12928416;22;98948;-80
2023/03/27 06:19:13;;;;;;;13.15;3.20;;;;;;;9.85;73.96;101184.28;12928194;22;99197;-80
2023/03/27 06:24:46;;;;;;;10.90;3.47;;;;;;;9.86;73.25;101196.53;12929124;22;98980;-79
2023/03/27 06:30:11;;;;;;;9.05;3.00;;;;;;;9.94;73.11;101200.72;12928047;22;99088;-80
2023/03/27 07:32:24;;;;;;;9.95;2.80;;;;;;;13.60;60.94;101213.63;12918560;22;97594;-80
2023/03/27 07:37:43;;;;;;;11.13;2.75;;;;;;;14.44;58.82;101214.78;12862485;22;99177;-81
2023/03/27 07:42:56;;;;;;;10.38;2.83;;;;;;;14.66;56.12;101220.09;12862880;22;98944;-80
2023/03/27 07:48:09;;;;;;;10.00;3.30;;;;;;;15.24;55.36;101211.38;12863571;22;97547;-81
2023/03/27 07:53:28;;;;;;;7.55;2.38;;;;;;;14.85;53.56;101223.69;12863596;22;99081;-80
2023/03/27 09:44:05;;;;;;;7.93;2.55;;;;;;;19.23;38.45;101185.09;12927215;22;97087;-81
2023/03/27 09:49:21;;;;;;;9.95;2.75;;;;;;;19.85;38.30;101188.44;12928716;22;98922;-81
2023/03/27 09:54:46;;;;;;;7.45;3.05;;;;;;;19.97;38.01;101188.50;12929055;22;99154;-81
2023/03/27 10:00:14;;;;;;;5.88;2.20;;;;;;;19.92;37.42;101182.59;12927909;22;99384;-81
2023/03/27 10:05:27;;;;;;;5.60;2.65;;;;;;;20.27;36.76;101175.84;12918924;22;98910;-81
2023/03/27 10:10:41;;;;;;;6.93;2.85;;;;;;;20.85;36.01;101180.06;12928393;22;98817;-81
2023/03/27 10:16:06;;;;;;;8.63;2.95;;;;;;;20.80;35.37;101183.03;12929856;22;98855;-81
2023/03/27 10:21:15;;;;;;;6.72;2.88;;;;;;;21.20;35.22;101176.75;12904325;22;99273;-81
2023/03/27 10:26:31;;;;;;;7.45;2.60;;;;;;;21.52;34.31;101187.88;12928656;22;98908;-81
2023/03/27 10:31:57;;;;;;;5.88;2.85;;;;;;;22.38;33.75;101178.97;12927175;22;98964;-81
2023/03/27 10:37:09;;;;;;;6.63;2.33;;;;;;;22.03;33.70;101175.31;12928540;22;99030;-81
2023/03/27 10:42:14;;;;;;;6.68;2.60;;;;;;;22.56;32.90;101169.53;12928017;22;99034;-81
2023/03/27 10:47:33;;;;;;;6.25;2.75;;;;;;;22.39;32.52;101160.06;12928123;22;99497;-81
2023/03/27 10:52:50;;;;;;;6.00;2.70;;;;;;;23.14;31.53;101157.97;12927894;22;99207;-81
2023/03/27 10:58:05;;;;;;;5.37;2.87;;;;;;;23.63;31.29;101150.50;12928342;22;99059;-81
2023/03/27 11:03:27;;;;;;;8.10;2.78;;;;;;;22.88;30.78;101154.59;12928035;22;98948;-81
2023/03/27 11:08:49;;;;;;;5.45;2.42;;;;;;;22.99;31.48;101148.41;12929103;22;99136;-81
2023/03/27 11:14:18;;;;;;;6.25;2.85;;;;;;;23.36;31.10;101141.88;12928138;22;98988;-81
2023/03/27 11:19:48;;;;;;;5.43;2.10;;;;;;;23.39;30.23;101126.38;12919864;22;98718;-81
2023/03/27 11:24:56;;;;;;;6.85;2.53;;;;;;;23.14;30.51;101123.06;12926185;22;98980;-81
2023/03/27 11:30:25;;;;;;;6.00;2.40;;;;;;;23.23;30.74;101127.72;12927978;22;98985;-81
2023/03/27 11:35:36;;;;;;;7.55;2.45;;;;;;;22.83;30.22;101112.97;12927583;22;99070;-81
2023/03/27 12:48:51;;;;;;;4.03;1.85;;;;;;;24.41;26.54;101043.66;12929177;22;98895;-81
2023/03/27 12:53:58;;;;;;;4.97;1.90;;;;;;;24.28;26.10;101030.38;12930162;22;98715;-80
2023/03/27 12:59:14;;;;;;;5.10;1.65;;;;;;;24.29;25.57;101036.63;12930370;22;99296;-81
2023/03/27 13:04:40;;;;;;;2.90;1.52;;;;;;;24.81;25.16;101036.56;12918691;22;97859;-80
2023/03/27 13:09:58;;;;;;;5.10;1.85;;;;;;;24.24;24.87;101028.88;12929351;22;99173;-81
2023/03/27 13:15:54;;;;;;;3.33;1.70;;;;;;;24.48;23.83;101020.63;12924500;22;98501;-81
2023/03/27 13:21:13;;;;;;;5.15;1.90;;;;;;;24.13;24.54;101014.66;12929020;22;98943;-80
2023/03/27 13:26:28;;;;;;;4.32;1.90;;;;;;;24.88;25.64;101001.91;12929001;22;98852;-80
2023/03/27 13:32:00;;;;;;;5.65;2.38;;;;;;;24.36;25.12;100990.22;12929120;22;98991;-80
2023/03/27 13:37:47;;;;;;;5.43;1.88;;;;;;;24.81;24.61;100982.72;12928966;22;98937;-80
2023/03/27 13:43:05;;;;;;;4.45;2.13;;;;;;;24.00;25.07;100966.41;12928993;22;98995;-80
2023/03/27 13:48:57;;;;;;;259.05;41.22;;;;;;;24.56;25.46;100953.53;12865494;22;99275;-81
2023/03/27 13:54:38;;;;;;;4.13;1.75;;;;;;;24.45;25.55;100946.38;12856536;22;99149;-81
2023/03/27 14:00:22;;;;;;;4.55;1.90;;;;;;;24.52;25.59;100941.31;12804088;22;99045;-81
2023/03/27 14:05:51;;;;;;;3.92;1.83;;;;;;;24.28;26.54;100928.16;12864845;22;98763;-80
2023/03/27 14:11:27;;;;;;;5.28;2.00;;;;;;;23.95;26.13;100922.91;12863542;22;98584;-80
2023/03/27 14:16:58;;;;;;;6.60;1.92;;;;;;;24.06;27.02;100909.44;12851996;22;97809;-80
2023/03/27 14:22:21;;;;;;;5.00;2.38;;;;;;;23.91;27.00;100904.50;12852475;22;98880;-80
2023/03/27 14:27:32;;;;;;;4.72;2.20;;;;;;;23.73;27.15;100910.41;12864667;22;98467;-81
2023/03/27 14:32:42;;;;;;;6.07;1.92;;;;;;;24.05;26.56;100902.31;12864098;22;97802;-80
2023/03/27 14:37:54;;;;;;;5.28;2.30;;;;;;;23.90;27.92;100895.56;12864856;22;99049;-81
2023/03/27 14:43:01;;;;;;;6.60;2.50;;;;;;;23.71;28.41;100890.03;12864297;22;98919;-81
2023/03/27 14:48:26;;;;;;;4.38;1.90;;;;;;;23.52;28.28;100871.88;12928469;22;98857;-80
2023/03/27 14:53:35;;;;;;;3.78;1.95;;;;;;;23.67;27.52;100873.31;12927359;22;99235;-81
2023/03/27 14:58:44;;;;;;;5.90;2.35;;;;;;;23.58;28.41;100865.16;12928337;22;98168;-80
2023/03/27 15:03:53;;;;;;;4.47;1.92;;;;;;;23.67;28.55;100862.56;12926930;22;99031;-80
2023/03/27 15:09:04;;;;;;;5.28;2.30;;;;;;;23.81;29.28;100865.91;12928744;22;99096;-81
2023/03/27 15:14:17;;;;;;;3.60;1.73;;;;;;;23.66;28.82;100863.56;12915716;22;98934;-80
2023/03/27 15:19:26;;;;;;;4.32;1.95;;;;;;;23.86;28.82;100853.78;12927735;22;99175;-80
2023/03/27 15:24:49;;;;;;;4.35;1.90;;;;;;;23.77;29.94;100857.25;12927643;22;98946;-80
2023/03/27 15:30:17;;;;;;;4.05;2.10;;;;;;;23.45;28.97;100851.88;12927906;22;98919;-80
2023/03/27 15:35:32;;;;;;;5.40;1.83;;;;;;;23.53;29.70;100846.72;12918885;22;98999;-80
2023/03/27 15:40:41;;;;;;;3.40;1.83;;;;;;;23.93;29.77;100835.28;12928642;22;99074;-80
2023/03/27 15:46:04;;;;;;;5.13;2.13;;;;;;;23.90;30.38;100824.81;12927059;22;99019;-80
2023/03/27 15:51:12;;;;;;;6.13;2.22;;;;;;;23.66;30.73;100814.31;12927467;22;99456;-80
2023/03/27 15:56:23;;;;;;;4.57;2.10;;;;;;;23.53;30.10;100801.03;12926050;22;98920;-80
2023/03/27 16:01:35;;;;;;;;;;;;;;;23.45;30.31;100803.53;12926921;22;97853;-80
2023/03/27 16:06:45;;;;;;;4.45;1.90;;;;;;;23.47;28.87;100801.56;12929963;22;99380;-80
2023/03/27 16:11:54;;;;;;;4.68;1.77;;;;;;;23.51;28.98;100800.31;12929906;22;98959;-80
2023/03/27 16:17:11;;;;;;;4.30;1.73;;;;;;;23.35;27.93;100788.31;12929587;22;98965;-80
2023/03/27 16:22:28;;;;;;;5.60;1.90;;;;;;;23.39;27.69;100795.97;12929422;22;98967;-80
2023/03/27 16:27:47;;;;;;;5.40;1.95;;;;;;;23.40;29.70;100788.78;12929499;22;98905;-80
2023/03/27 16:32:52;;;;;;;5.95;2.15;;;;;;;23.23;30.01;100787.47;12930543;22;99107;-80
2023/03/27 16:37:57;;;;;;;4.55;2.08;;;;;;;23.07;30.37;100778.16;12929573;22;99006;-80
2023/03/27 16:43:03;;;;;;;4.53;1.90;;;;;;;23.01;30.76;100776.00;12929420;22;99262;-80
2023/03/27 16:48:07;;;;;;;6.13;2.28;;;;;;;22.95;30.95;100782.72;12864233;22;99176;-80
2023/03/27 16:53:15;;;;;;;4.00;1.65;;;;;;;22.91;30.16;100783.06;12865225;22;97667;-80
2023/03/27 16:58:20;;;;;;;5.50;1.98;;;;;;;22.89;29.64;100785.88;12865471;22;99231;-80
2023/03/27 17:03:35;;;;;;;3.58;1.73;;;;;;;22.76;30.11;100776.25;12865199;22;98950;-80
2023/03/27 17:08:40;;;;;;;3.28;1.70;;;;;;;22.77;29.87;100784.19;12865239;22;99109;-80
2023/03/27 17:14:07;;;;;;;6.63;1.90;;;;;;;22.74;31.19;100778.22;12864836;22;98936;-80
2023/03/27 17:19:10;;;;;;;5.95;2.28;;;;;;;22.72;33.43;100785.53;12865185;22;99100;-81
2023/03/27 17:24:18;;;;;;;8.10;3.15;;;;;;;22.43;35.13;100782.53;12866239;22;97923;-81
2023/03/27 17:29:23;;;;;;;8.13;3.60;;;;;;;22.24;36.73;100793.00;12864784;22;99240;-80
2023/03/27 17:34:27;;;;;;;10.05;4.75;;;;;;;22.02;37.59;100799.19;12864784;22;98882;-81
2023/03/27 17:39:37;;;;;;;13.63;6.07;;;;;;;21.87;39.23;100797.69;12863692;22;98987;-81
2023/03/27 17:44:46;;;;;;;12.02;6.22;;;;;;;21.76;39.96;100794.13;12884343;22;99035;-81
2023/03/27 17:49:52;;;;;;;20.33;7.05;;;;;;;21.67;40.50;100795.69;12928760;22;99034;-81
2023/03/27 17:55:11;;;;;;;14.98;6.18;;;;;;;21.49;41.28;100797.09;12928766;22;99101;-80
2023/03/27 18:05:36;;;;;;;13.38;5.32;;;;;;;21.31;42.90;100804.69;12926789;22;99153;-81
2023/03/27 18:10:47;;;;;;;15.77;5.35;;;;;;;21.09;43.87;100809.91;12928620;22;98961;-81
2023/03/27 18:15:55;;;;;;;12.15;5.20;;;;;;;20.93;44.27;100808.47;12929346;22;98784;-81
2023/03/27 18:20:59;;;;;;;14.40;5.53;;;;;;;20.73;45.23;100827.78;12928463;22;99182;-81
2023/03/27 18:26:09;;;;;;;16.02;7.70;;;;;;;20.46;46.35;100822.63;12928227;22;99247;-80
2023/03/27 18:31:14;;;;;;;14.77;7.15;;;;;;;20.26;46.98;100829.31;12927124;22;99058;-81
2023/03/27 18:36:17;;;;;;;17.38;6.90;;;;;;;20.15;47.18;100839.91;12928363;22;98984;-80
2023/03/27 18:41:42;;;;;;;14.05;6.88;;;;;;;20.01;47.46;100842.66;12925672;22;98604;-81
2023/03/27 18:46:52;;;;;;;;;;;;;;;19.76;48.34;100831.09;12928288;22;99133;-81
2023/03/27 18:51:56;;;;;;;15.68;6.28;;;;;;;19.63;47.95;100840.94;12928523;22;99948;-81
2023/03/27 18:57:03;;;;;;;10.90;5.25;;;;;;;19.45;48.64;100835.00;12928255;22;98961;-81
2023/03/27 19:02:13;;;;;;;11.57;5.60;;;;;;;19.31;48.94;100843.03;12916959;22;99001;-81
2023/03/27 19:07:21;;;;;;;13.43;5.97;;;;;;;19.11;49.64;100843.50;12929151;22;98919;-80
2023/03/27 19:12:35;;;;;;;10.20;4.78;;;;;;;18.85;50.87;100849.66;12928252;22;98925;-81
2023/03/27 19:17:39;;;;;;;10.45;5.13;;;;;;;18.76;51.69;100851.09;12927695;22;99181;-80
2023/03/27 19:22:43;;;;;;;12.18;4.90;;;;;;;18.68;52.29;100853.38;12926583;22;98931;-81
2023/03/27 19:27:53;;;;;;;10.88;4.88;;;;;;;18.62;51.60;100860.91;12927812;22;98933;-80
2023/03/27 19:32:56;;;;;;;9.77;4.47;;;;;;;18.49;52.93;100858.16;12927530;22;99282;-80
2023/03/27 19:38:02;;;;;;;12.87;4.80;;;;;;;18.51;52.26;100858.06;12927324;22;99360;-80
2023/03/27 19:43:09;;;;;;;11.55;5.03;;;;;;;18.26;53.61;100861.38;12914861;22;99011;-81
2023/03/27 19:48:17;;;;;;;9.25;4.45;;;;;;;18.08;54.37;100865.16;12927486;22;98884;-80
2023/03/27 19:53:31;;;;;;;;;;;;;;;;;;;;;
2023/03/27 19:59:13;;;;;;;;;;;;;;;;;;;;;
2023/03/27 20:51:14;;;;;;;10.05;5.25;;;;;;;16.84;59.54;100893.66;12922580;22;97147;-80
2023/03/27 20:56:24;;;;;;;13.88;5.97;;;;;;;16.94;58.82;100917.97;12866264;22;99303;-80
2023/03/27 21:01:34;;;;;;;13.13;6.22;;;;;;;17.10;58.00;100917.97;12865035;22;98982;-80
2023/03/27 21:06:40;;;;;;;14.10;6.43;;;;;;;16.68;60.02;100918.53;12865291;22;99234;-80
2023/03/27 21:11:44;;;;;;;11.23;5.45;;;;;;;16.43;60.92;100921.63;12863963;22;99044;-80
2023/03/27 21:16:50;;;;;;;9.95;5.38;;;;;;;16.73;59.32;100929.75;12864832;22;99445;-80
2023/03/27 21:21:54;;;;;;;12.20;6.13;;;;;;;16.81;59.28;100938.16;12864873;22;99008;-80
2023/03/27 21:26:59;;;;;;;12.45;5.80;;;;;;;16.63;60.54;100926.75;12865020;22;99162;-80
2023/03/27 21:32:08;;;;;;;15.15;6.13;;;;;;;16.64;59.37;100928.47;12864967;22;99030;-80
2023/03/27 21:37:22;;;;;;;;;;;;;;;;;;;;;
2023/03/27 21:47:51;;;;;;;10.00;5.13;;;;;;;16.52;60.02;100946.84;12864298;22;99336;-80
2023/03/27 21:52:56;;;;;;;8.93;5.50;;;;;;;16.53;59.98;100945.91;12886552;22;98913;-80
2023/03/27 21:58:04;;;;;;;14.07;5.75;;;;;;;16.35;60.61;100963.66;12928715;22;98652;-80
2023/03/27 22:03:08;;;;;;;11.70;5.32;;;;;;;16.36;60.59;100967.16;12926700;22;99090;-80
2023/03/27 22:08:12;;;;;;;12.48;6.47;;;;;;;16.38;61.58;100975.91;12928986;22;99111;-80
2023/03/27 22:13:20;;;;;;;10.45;5.78;;;;;;;15.94;62.56;100978.19;12928604;22;99031;-80
2023/03/27 22:18:24;;;;;;;13.07;5.57;;;;;;;15.90;62.67;100980.13;12928719;22;99190;-80
2023/03/27 22:23:38;;;;;;;12.15;5.80;;;;;;;15.74;62.60;100989.78;12928189;22;98926;-80
2023/03/27 22:28:58;;;;;;;11.43;5.80;;;;;;;15.79;62.69;101001.03;12928489;22;99229;-80
2023/03/27 22:34:04;;;;;;;12.27;5.40;;;;;;;15.91;62.30;101000.41;12927115;22;99207;-80
2023/03/27 22:39:10;;;;;;;12.45;6.10;;;;;;;15.85;62.38;101003.38;12929583;22;98859;-80
2023/03/27 22:44:24;;;;;;;9.98;6.00;;;;;;;15.75;62.76;101007.41;12928192;22;98880;-80
2023/03/27 22:49:30;;;;;;;10.48;5.70;;;;;;;15.79;62.39;101008.97;12928344;22;99135;-80
2023/03/27 22:54:38;;;;;;;14.82;5.72;;;;;;;15.69;62.30;101014.81;12926864;22;98873;-80
2023/03/27 22:59:56;;;;;;;10.00;5.43;;;;;;;15.70;62.09;101003.28;12928101;22;99229;-79
2023/03/27 23:05:06;;;;;;;13.60;5.82;;;;;;;15.62;62.58;101005.44;12928124;22;99333;-79
2023/03/27 23:10:10;;;;;;;13.63;5.68;;;;;;;15.36;63.30;100996.06;12928017;22;98947;-79
2023/03/27 23:15:15;;;;;;;10.65;5.97;;;;;;;15.45;62.76;100990.34;12927455;22;99149;-78
2023/03/27 23:20:40;;;;;;;9.70;5.72;;;;;;;15.15;63.91;100982.91;12928126;22;98904;-79
2023/03/27 23:25:56;;;;;;;;;;;;;;;14.74;66.61;100971.56;12927845;22;97820;-79
2023/03/27 23:31:05;;;;;;;12.45;6.13;;;;;;;14.53;66.52;100969.88;12928987;22;98883;-79
2023/03/27 23:36:22;;;;;;;13.82;6.28;;;;;;;14.32;67.43;100979.63;12927491;22;98978;-79
2023/03/27 23:41:28;;;;;;;11.07;5.93;;;;;;;14.11;68.41;100979.66;12926648;22;98737;-79
2023/03/27 23:46:39;;;;;;;11.73;5.93;;;;;;;13.98;68.69;100981.09;12926261;22;99230;-79
2023/03/27 23:51:42;;;;;;;12.23;6.03;;;;;;;14.04;68.55;100976.44;12926911;22;99003;-79
2023/03/27 23:56:45;;;;;;;13.68;6.40;;;;;;;14.14;67.53;100979.56;12927619;22;99159;-79
